weather.gov     
National Weather Service

Terminal Aerodrome Forecast
NWS Homepage
This page is being discontinued on March 12, 2014.
The same data is available at this site. Please update your bookmarks.
Thank you, and we apologize for the inconvenience.
Please send an email to SR-SRH.Webmaster@noaa.gov with any concerns.


Current Version
Previous Version:    01  02  03  04  05  06  07  08  09  10  11  12  13  14  15  16  17  18  19  20  21  22  23  24  25  26  27  28  29  30  
   31  32  33  34  35  36  37  38  39  40  41  42  43  
[Printable]
144
FTUS43 KDMX 012326
TAFDSM
TAF
KDSM 012326Z 0200/0224 14005KT 6SM BR SCT022 BKN150
      TEMPO 0200/0202 BKN019 OVC030
     FM020200 VRB04KT 5SM BR FEW020 BKN150
     FM020800 VRB04KT 2SM BR BKN007
     FM021300 08006KT 4SM BR VCSH SCT009 BKN018
     FM021700 13009KT 6SM BR VCTS SCT015CB BKN025=




144
FTUS43 KDMX 012326
TAFDSM
TAF
KDSM 012326Z 0200/0224 14005KT 6SM BR SCT022 BKN150
      TEMPO 0200/0202 BKN019 OVC030
     FM020200 VRB04KT 5SM BR FEW020 BKN150
     FM020800 VRB04KT 2SM BR BKN007
     FM021300 08006KT 4SM BR VCSH SCT009 BKN018
     FM021700 13009KT 6SM BR VCTS SCT015CB BKN025=


U.S. Dept. of Commerce
NOAA National Weather Service
1325 East West Highway
Silver Spring, MD 20910
E-mail: w-nws.webmaster@noaa.gov
Page last modified: May 16, 2007
NATIONAL WEATHER SERVICE: for Safety, for Work, for Fun - FOR LIFE